Time;durP1;ratioP1;P1;durP2;ratioP2;P2;SDS_P1;SDS_P2;PMS_P1;PMS_P2;Temp;Humidity;BMP_temperature;BMP_pressure;BME280_temperature;BME280_humidity;BME280_pressure;Samples;Min_cycle;Max_cycle;Signal;HPM_P1;HPM_P2
2022/10/09 00:04:53;;;;;;;4.20;1.20;;;;;;;18.14;59.54;97299.94;10557414;28;20032;-30
2022/10/09 00:09:54;;;;;;;1.83;0.97;;;;;;;18.05;59.58;97287.19;10568157;28;20032;-29
2022/10/09 00:14:54;;;;;;;1.23;0.90;;;;;;;18.27;59.77;97298.38;10573986;28;20155;-30
2022/10/09 00:19:54;;;;;;;3.40;1.38;;;;;;;18.37;62.58;97301.06;10565004;28;20046;-29
2022/10/09 00:24:55;;;;;;;2.27;1.10;;;;;;;18.13;59.41;97259.38;10570311;28;20500;-30
2022/10/09 00:29:55;;;;;;;4.70;1.40;;;;;;;18.23;59.18;97291.56;10570393;28;20371;-30
2022/10/09 00:34:55;;;;;;;2.00;0.90;;;;;;;18.19;59.27;97285.66;10564271;28;20285;-29
2022/10/09 00:39:56;;;;;;;2.30;1.37;;;;;;;18.15;59.41;97278.81;10564337;28;20662;-29
2022/10/09 00:44:59;;;;;;;2.22;0.80;;;;;;;18.13;59.34;97282.19;10563479;28;20459;-29
2022/10/09 00:50:14;;;;;;;2.05;0.85;;;;;;;18.10;59.38;97274.56;10552334;28;20043;-29
2022/10/09 00:55:15;;;;;;;1.00;0.90;;;;;;;18.09;59.35;97273.69;10558021;28;20027;-29
2022/10/09 01:00:16;;;;;;;1.85;1.00;;;;;;;18.12;59.34;97275.41;10552283;28;20115;-30
2022/10/09 01:05:17;;;;;;;2.72;1.00;;;;;;;18.13;59.44;97270.38;10550873;28;20390;-29
2022/10/09 01:10:18;;;;;;;1.48;1.33;;;;;;;18.29;60.05;97262.13;10566025;28;20043;-29
2022/10/09 01:15:27;;;;;;;1.17;1.08;;;;;;;18.30;59.83;97258.75;10567752;28;20394;-29
2022/10/09 01:20:33;;;;;;;1.85;1.00;;;;;;;18.22;58.93;97252.72;10564786;28;20066;-30
2022/10/09 01:25:50;;;;;;;1.00;0.85;;;;;;;18.16;59.01;97239.16;10564065;28;20031;-29
2022/10/09 01:30:51;;;;;;;1.70;0.82;;;;;;;18.15;59.00;97232.38;10559287;28;20409;-30
2022/10/09 01:35:52;;;;;;;1.70;0.88;;;;;;;18.11;59.04;97235.72;10555226;28;20172;-31
2022/10/09 01:40:53;;;;;;;1.77;1.08;;;;;;;18.11;59.18;97225.56;10549695;28;20088;-29
2022/10/09 01:46:22;;;;;;;1.58;0.80;;;;;;;18.11;59.02;97220.50;10564523;28;20080;-30
2022/10/09 01:51:28;;;;;;;1.45;0.80;;;;;;;18.09;58.98;97212.03;10561920;28;20081;-30
2022/10/09 01:56:33;;;;;;;2.10;0.90;;;;;;;18.08;58.89;97200.22;10563020;28;20039;-30
2022/10/09 02:01:36;;;;;;;1.05;0.75;;;;;;;18.22;59.79;97196.09;10565339;28;20043;-29
2022/10/09 02:06:39;;;;;;;2.20;0.98;;;;;;;18.29;62.24;97195.31;10554830;28;20051;-30
2022/10/09 02:11:42;;;;;;;3.33;1.13;;;;;;;18.21;58.91;97186.78;10559038;28;20024;-29
2022/10/09 02:16:54;;;;;;;2.00;1.15;;;;;;;18.19;58.77;97183.41;10559794;28;20405;-29
2022/10/09 02:22:01;;;;;;;1.67;0.90;;;;;;;18.18;59.07;97180.00;10553379;28;21344;-29
2022/10/09 02:27:02;;;;;;;0.77;0.70;;;;;;;18.20;59.13;97172.44;10561732;28;20077;-30
2022/10/09 02:32:02;;;;;;;1.65;0.70;;;;;;;18.20;58.99;97174.97;10559446;28;20028;-30
2022/10/09 02:37:03;;;;;;;1.10;0.90;;;;;;;18.19;58.92;97169.06;10569097;28;20520;-29
2022/10/09 02:42:03;;;;;;;1.50;0.70;;;;;;;18.14;58.88;97160.56;10555866;28;20412;-30
2022/10/09 02:47:04;;;;;;;0.85;0.70;;;;;;;18.18;59.11;97158.91;10566289;28;20144;-29
2022/10/09 02:52:04;;;;;;;2.17;1.10;;;;;;;18.16;58.99;97170.72;10541311;27;20409;-30
2022/10/09 02:57:05;;;;;;;2.03;1.02;;;;;;;18.25;61.48;97158.13;10566001;28;20281;-29
2022/10/09 03:02:05;;;;;;;0.70;0.70;;;;;;;18.31;61.22;97158.19;10569311;28;20104;-29
2022/10/09 03:07:05;;;;;;;1.03;0.73;;;;;;;18.28;58.96;97153.06;10561228;28;20304;-30
2022/10/09 03:12:06;;;;;;;2.33;1.10;;;;;;;18.27;59.00;97147.16;10561445;28;20032;-29
2022/10/09 03:17:06;;;;;;;1.60;0.93;;;;;;;18.26;58.66;97149.69;10563028;28;20039;-31
2022/10/09 03:22:06;;;;;;;0.80;0.70;;;;;;;18.25;58.69;97150.53;10561511;28;20043;-29
2022/10/09 03:27:07;;;;;;;1.10;1.00;;;;;;;18.21;58.69;97149.66;10556781;28;20047;-30
2022/10/09 03:32:07;;;;;;;1.47;0.70;;;;;;;18.19;58.65;97141.19;10552044;28;20036;-29
2022/10/09 03:37:08;;;;;;;1.00;0.70;;;;;;;18.18;58.58;97151.31;10554516;28;20110;-30
2022/10/09 03:42:08;;;;;;;1.60;0.70;;;;;;;18.17;58.81;97144.53;10556913;28;20408;-30
2022/10/09 03:47:08;;;;;;;1.33;0.73;;;;;;;18.17;58.62;97145.38;10553907;28;20282;-29
2022/10/09 03:52:09;;;;;;;3.73;0.90;;;;;;;18.17;61.15;97129.34;10563411;28;20077;-29
2022/10/09 03:57:09;;;;;;;1.03;0.80;;;;;;;18.28;60.74;97148.00;10562968;28;20031;-30
2022/10/09 04:02:09;;;;;;;1.23;1.00;;;;;;;18.28;58.87;97143.78;10558403;28;20461;-29
2022/10/09 04:07:10;;;;;;;1.37;0.70;;;;;;;18.26;58.49;97145.44;10560747;28;20036;-30
2022/10/09 04:12:10;;;;;;;1.00;0.87;;;;;;;18.18;58.49;97136.09;10563177;28;20028;-30
2022/10/09 04:17:11;;;;;;;1.10;0.70;;;;;;;18.23;58.60;97142.91;10562745;28;20432;-29
2022/10/09 04:22:11;;;;;;;1.57;0.87;;;;;;;18.19;58.36;97143.72;10560170;28;20054;-29
2022/10/09 04:27:11;;;;;;;1.52;0.80;;;;;;;18.21;58.31;97136.13;10555857;28;20036;-29
2022/10/09 04:32:12;;;;;;;1.03;0.73;;;;;;;18.18;58.45;97136.09;10565271;28;20028;-29
2022/10/09 04:37:12;;;;;;;1.20;0.70;;;;;;;18.19;58.36;97138.66;10550046;28;20070;-29
2022/10/09 04:42:12;;;;;;;1.33;0.83;;;;;;;18.19;58.76;97127.66;10555665;28;20024;-29
2022/10/09 04:47:13;;;;;;;1.60;0.90;;;;;;;18.28;60.67;97122.66;10564395;28;20054;-30
2022/10/09 04:52:13;;;;;;;0.97;0.80;;;;;;;18.29;60.71;97119.28;10563955;28;20031;-29
2022/10/09 04:57:14;;;;;;;0.70;0.60;;;;;;;18.27;58.64;97120.97;10564011;28;20281;-30
2022/10/09 05:02:14;;;;;;;2.90;0.80;;;;;;;18.22;58.48;97113.31;10562590;28;20016;-29
2022/10/09 05:07:15;;;;;;;0.95;0.63;;;;;;;18.18;58.10;97113.28;10567874;28;20133;-30
2022/10/09 05:12:15;;;;;;;0.90;0.60;;;;;;;18.24;58.06;97114.19;10560979;28;20020;-29
2022/10/09 05:17:15;;;;;;;1.30;0.80;;;;;;;18.23;58.55;97109.09;10559240;28;20035;-30
2022/10/09 05:22:16;;;;;;;0.70;0.60;;;;;;;18.25;58.43;97118.41;10549733;28;20439;-29
2022/10/09 05:27:16;;;;;;;2.13;0.97;;;;;;;18.25;58.57;97113.34;10561517;28;20364;-29
2022/10/09 05:32:17;;;;;;;0.87;0.70;;;;;;;18.26;58.52;97104.06;10564195;28;20020;-30
2022/10/09 05:37:17;;;;;;;0.85;0.73;;;;;;;18.30;58.82;97105.78;10545871;28;20076;-30
2022/10/09 05:42:17;;;;;;;1.73;0.80;;;;;;;18.35;59.50;97104.16;10561346;28;20032;-27
2022/10/09 05:47:18;;;;;;;2.63;0.63;;;;;;;18.28;59.02;97099.84;10538305;27;20304;-29
2022/10/09 05:52:19;;;;;;;0.80;0.50;;;;;;;18.28;58.24;97112.50;10553925;28;20020;-29
2022/10/09 05:57:19;;;;;;;2.20;0.97;;;;;;;18.17;56.75;97111.59;10554431;28;20032;-30
2022/10/09 06:02:19;;;;;;;2.30;0.88;;;;;;;17.97;56.52;97091.16;10540081;28;20343;-29
2022/10/09 06:07:20;;;;;;;1.17;0.87;;;;;;;18.02;56.18;97116.53;10550284;28;20447;-30
2022/10/09 06:12:20;;;;;;;2.60;1.10;;;;;;;17.92;56.39;97119.84;10550152;28;20051;-29
2022/10/09 06:17:20;;;;;;;1.57;0.90;;;;;;;17.92;56.24;97117.31;10561984;28;20404;-29
2022/10/09 06:22:21;;;;;;;1.48;1.00;;;;;;;17.91;55.71;97108.84;10549732;28;20028;-29
2022/10/09 06:27:21;;;;;;;4.18;0.80;;;;;;;17.83;54.97;97112.16;10548274;28;20036;-30
2022/10/09 06:32:22;;;;;;;2.60;1.17;;;;;;;17.88;54.85;97115.56;10555277;28;20489;-30
2022/10/09 06:37:22;;;;;;;1.43;1.00;;;;;;;17.93;54.99;97129.13;10546364;28;20543;-29
2022/10/09 06:42:22;;;;;;;5.43;1.33;;;;;;;17.87;53.06;97124.00;10558635;27;20400;-30
2022/10/09 06:47:29;;;;;;;3.70;1.33;;;;;;;17.79;54.31;97121.41;10531710;28;20023;-31
2022/10/09 06:52:30;;;;;;;8.27;1.40;;;;;;;17.98;54.98;97118.19;10546095;28;20016;-30
2022/10/09 06:57:30;;;;;;;4.60;1.20;;;;;;;18.08;55.60;97114.91;10556481;28;20285;-29
2022/10/09 07:02:32;;;;;;;2.28;1.02;;;;;;;18.09;55.52;97118.28;10567005;28;20462;-30
2022/10/09 07:07:32;;;;;;;6.05;1.38;;;;;;;17.83;55.02;97118.06;10556258;28;20480;-29
2022/10/09 07:12:34;;;;;;;2.03;1.20;;;;;;;17.77;54.62;97119.69;10560085;28;20072;-29
2022/10/09 07:17:34;;;;;;;2.65;1.50;;;;;;;17.79;54.52;97120.56;10558251;28;20038;-29
2022/10/09 07:22:35;;;;;;;3.93;1.60;;;;;;;17.79;54.48;97118.03;10554339;28;20028;-30
2022/10/09 07:27:35;;;;;;;4.40;1.17;;;;;;;17.77;54.35;97118.03;10550085;28;20297;-28
2022/10/09 07:32:36;;;;;;;3.90;1.20;;;;;;;17.81;54.60;97114.69;10561151;28;20076;-29
2022/10/09 07:37:36;;;;;;;4.27;1.37;;;;;;;17.80;54.60;97112.13;10555006;28;20034;-29
2022/10/09 07:42:36;;;;;;;2.30;1.00;;;;;;;17.80;55.00;97118.03;10557926;28;20039;-29
2022/10/09 07:47:37;;;;;;;3.33;1.50;;;;;;;17.79;54.25;97106.22;10556555;28;20056;-29
2022/10/09 07:52:37;;;;;;;3.27;1.90;;;;;;;17.71;54.35;97100.25;10556636;28;20393;-30
2022/10/09 07:57:37;;;;;;;5.10;1.60;;;;;;;17.69;54.60;97098.53;10561239;28;20497;-29
2022/10/09 08:02:38;;;;;;;4.00;1.60;;;;;;;17.74;54.65;97099.44;10545709;28;20497;-30
2022/10/09 08:07:38;;;;;;;2.90;1.20;;;;;;;17.72;54.77;97098.53;10563057;28;20536;-30
2022/10/09 08:12:39;;;;;;;4.57;1.47;;;;;;;17.77;54.55;97097.78;10556504;28;20485;-30
2022/10/09 08:17:39;;;;;;;2.97;1.20;;;;;;;17.79;54.55;97097.75;10562299;28;20346;-30
2022/10/09 08:22:39;;;;;;;3.10;0.90;;;;;;;17.80;54.47;97087.66;10565078;28;20031;-31
2022/10/09 08:27:40;;;;;;;4.60;1.40;;;;;;;17.82;54.52;97075.03;10551194;28;20036;-30
2022/10/09 08:32:40;;;;;;;2.97;1.13;;;;;;;17.95;54.61;97077.66;10553756;28;20035;-31
2022/10/09 08:37:40;;;;;;;4.33;1.27;;;;;;;18.09;56.10;97080.28;10561311;28;20059;-30
2022/10/09 08:42:55;;;;;;;4.53;1.33;;;;;;;18.16;55.24;97071.91;10561278;28;20809;-29
2022/10/09 08:48:01;;;;;;;6.30;1.60;;;;;;;18.19;55.33;97066.84;10556562;28;20185;-29
2022/10/09 08:53:15;;;;;;;4.23;1.60;;;;;;;18.22;55.64;97066.84;10562524;28;20089;-29
2022/10/09 08:58:20;;;;;;;3.20;1.13;;;;;;;18.25;55.82;97066.88;10561204;28;20290;-29
2022/10/09 09:03:42;;;;;;;3.90;1.33;;;;;;;18.26;56.11;97051.66;10557074;28;20024;-28
2022/10/09 09:09:04;;;;;;;4.28;1.70;;;;;;;18.30;56.39;97053.44;10564306;28;20043;-29
2022/10/09 09:14:15;;;;;;;5.40;2.28;;;;;;;18.28;57.78;97057.63;10559683;28;20027;-29
2022/10/09 09:19:28;;;;;;;15.30;3.63;;;;;;;18.30;56.78;97061.03;10549879;28;20081;-29
2022/10/09 09:24:50;;;;;;;7.97;2.47;;;;;;;18.21;57.64;97035.59;10547228;28;20412;-29
2022/10/09 09:30:15;;;;;;;11.57;3.13;;;;;;;18.34;58.85;97047.53;10554931;28;20020;-29
2022/10/09 09:35:27;;;;;;;8.52;3.30;;;;;;;18.38;58.77;97034.03;10525043;28;20043;-29
2022/10/09 09:40:33;;;;;;;13.23;3.72;;;;;;;18.34;58.21;97028.94;10543497;28;20039;-30
2022/10/09 09:45:33;;;;;;;8.80;2.43;;;;;;;18.30;58.15;97037.34;10552856;28;20053;-29
2022/10/09 09:50:38;;;;;;;10.40;2.78;;;;;;;18.32;57.85;97035.72;10562594;28;20035;-33
2022/10/09 09:55:38;;;;;;;6.00;2.60;;;;;;;18.33;57.95;97033.16;10560695;28;20042;-29
2022/10/09 10:00:39;;;;;;;8.00;2.58;;;;;;;18.32;58.31;97023.88;10542766;28;20032;-29
2022/10/09 10:05:41;;;;;;;10.35;2.80;;;;;;;18.30;58.36;97034.81;10541764;28;20031;-29
2022/10/09 10:10:46;;;;;;;9.52;3.72;;;;;;;18.33;58.52;97029.78;10556949;28;20028;-30
2022/10/09 10:15:55;;;;;;;6.75;2.58;;;;;;;18.34;58.48;97021.34;10560837;28;20036;-29
2022/10/09 10:21:02;;;;;;;11.25;3.70;;;;;;;18.33;59.45;97022.19;10565401;28;20034;-29
2022/10/09 10:26:16;;;;;;;7.00;2.80;;;;;;;18.36;61.37;97024.72;10559029;28;20400;-30
2022/10/09 10:31:33;;;;;;;9.75;2.70;;;;;;;18.36;61.46;97019.66;10565427;28;20024;-30
2022/10/09 10:36:34;;;;;;;;;;;;;;;18.34;59.23;97011.22;10554425;28;20071;-29
2022/10/09 10:41:44;;;;;;;7.10;2.63;;;;;;;18.33;59.18;97012.06;10551399;28;20351;-29
2022/10/09 10:46:57;;;;;;;8.00;2.22;;;;;;;18.32;58.96;97002.75;10564637;28;20034;-30
2022/10/09 10:52:34;;;;;;;4.55;1.88;;;;;;;18.31;58.84;97003.56;10563225;28;20081;-29
2022/10/09 10:57:59;;;;;;;7.47;2.60;;;;;;;18.31;59.34;97003.56;10521113;28;20077;-29
2022/10/09 11:03:04;;;;;;;7.47;2.72;;;;;;;18.31;58.86;96988.34;10558367;28;20059;-31
2022/10/09 11:08:30;;;;;;;5.40;1.98;;;;;;;18.32;59.43;97001.06;10565006;28;20122;-30
2022/10/09 11:13:46;;;;;;;3.27;2.33;;;;;;;18.32;58.77;96979.94;10563174;28;20058;-30
2022/10/09 11:18:59;;;;;;;7.95;2.20;;;;;;;18.32;59.00;96987.56;10559436;28;20059;-29
2022/10/09 11:24:10;;;;;;;5.82;2.10;;;;;;;18.34;60.94;96978.25;10561226;28;20020;-31
2022/10/09 11:29:18;;;;;;;4.32;1.98;;;;;;;18.35;60.62;96968.09;10556192;28;20027;-30
2022/10/09 11:34:28;;;;;;;5.57;2.03;;;;;;;18.34;60.06;96965.59;10561148;28;20437;-29
2022/10/09 11:39:31;;;;;;;4.38;2.00;;;;;;;18.34;59.56;96960.50;10563279;28;20103;-29
2022/10/09 11:44:55;;;;;;;6.25;2.08;;;;;;;18.32;59.90;96941.94;10565821;28;20110;-30
2022/10/09 11:50:05;;;;;;;6.25;2.10;;;;;;;18.34;59.45;96945.31;10566260;28;20031;-29
2022/10/09 11:55:19;;;;;;;4.07;2.15;;;;;;;18.33;59.26;96938.53;10561087;28;20035;-30
2022/10/09 12:00:31;;;;;;;5.70;2.08;;;;;;;18.33;59.17;96930.94;10570771;28;20406;-29
2022/10/09 12:05:38;;;;;;;4.53;2.20;;;;;;;18.32;58.94;96927.53;10572322;28;20383;-30
2022/10/09 12:10:45;;;;;;;5.15;1.95;;;;;;;18.34;59.21;96927.56;10573515;28;20512;-30
2022/10/09 12:15:48;;;;;;;4.32;1.75;;;;;;;18.33;59.33;96915.72;10566265;28;20028;-29
2022/10/09 12:20:50;;;;;;;4.40;2.00;;;;;;;18.35;60.91;96916.56;10566974;28;20027;-29
2022/10/09 12:25:53;;;;;;;4.75;2.17;;;;;;;18.36;61.24;96905.59;10572639;28;20253;-30
2022/10/09 12:30:56;;;;;;;4.38;2.08;;;;;;;18.35;60.44;96891.22;10571953;28;20084;-29
2022/10/09 12:36:24;;;;;;;3.30;1.90;;;;;;;18.35;59.58;96892.06;10560558;28;20024;-30
2022/10/09 12:41:24;;;;;;;3.42;1.63;;;;;;;18.34;59.46;96884.47;10572886;28;20055;-30
2022/10/09 12:46:31;;;;;;;2.37;1.63;;;;;;;18.33;59.29;96877.72;10560404;28;20469;-32
2022/10/09 12:51:32;;;;;;;4.38;1.55;;;;;;;18.34;59.17;96864.19;10569558;28;20031;-30
2022/10/09 12:56:37;;;;;;;3.05;1.65;;;;;;;18.31;59.20;96859.97;10567307;28;20032;-29
2022/10/09 13:01:39;;;;;;;3.50;1.60;;;;;;;18.34;59.10;96854.06;10564187;28;20036;-29
2022/10/09 13:06:46;;;;;;;3.70;1.92;;;;;;;18.26;59.62;96841.31;10563953;28;20534;-30
2022/10/09 13:12:16;;;;;;;19.23;2.92;;;;;;;18.47;61.12;96836.34;10540847;28;20040;-30
2022/10/09 13:17:31;;;;;;;9.55;3.20;;;;;;;18.45;61.48;96827.88;10545618;28;20485;-30
2022/10/09 13:22:32;;;;;;;9.75;3.20;;;;;;;18.47;61.73;96830.41;10555759;28;20066;-30
2022/10/09 13:27:36;;;;;;;10.23;2.25;;;;;;;18.44;58.92;96816.06;10549288;28;20119;-30
2022/10/09 13:32:37;;;;;;;9.27;2.63;;;;;;;18.38;55.42;96810.13;10555337;28;20039;-31
2022/10/09 13:37:37;;;;;;;12.20;2.77;;;;;;;18.35;58.68;96800.81;10553868;28;20370;-30
2022/10/09 13:42:38;;;;;;;8.27;2.50;;;;;;;18.39;58.86;96805.06;10563386;28;20036;-30
2022/10/09 13:47:38;;;;;;;7.72;2.05;;;;;;;18.40;58.94;96798.31;10559718;28;20031;-31
2022/10/09 13:52:38;;;;;;;5.60;2.43;;;;;;;18.37;59.17;96790.69;10560384;28;20103;-30
2022/10/09 13:57:39;;;;;;;13.67;2.43;;;;;;;18.40;58.97;96798.31;10552488;28;20393;-30
2022/10/09 14:02:39;;;;;;;8.20;2.43;;;;;;;18.40;59.10;96780.56;10552724;28;20081;-30
2022/10/09 14:07:40;;;;;;;7.43;1.80;;;;;;;18.40;59.09;96785.63;10555788;28;20293;-31
2022/10/09 14:12:40;;;;;;;14.40;3.10;;;;;;;18.42;59.89;96778.88;10556551;28;20269;-30
2022/10/09 14:17:40;;;;;;;8.73;3.53;;;;;;;18.47;61.60;96780.56;10555617;28;20290;-31
2022/10/09 14:22:41;;;;;;;9.87;3.53;;;;;;;18.48;61.95;96778.84;10544068;28;20028;-30
2022/10/09 14:27:41;;;;;;;6.07;2.80;;;;;;;18.47;59.99;96769.56;10553918;28;20032;-30
2022/10/09 14:32:41;;;;;;;7.57;2.50;;;;;;;18.47;59.36;96770.44;10547632;28;20270;-30
2022/10/09 14:37:42;;;;;;;11.23;2.73;;;;;;;18.45;59.48;96766.19;10544542;28;20028;-29
2022/10/09 14:42:42;;;;;;;12.40;4.32;;;;;;;18.46;59.39;96760.28;10549859;28;20371;-30
2022/10/09 14:47:43;;;;;;;8.30;3.57;;;;;;;18.38;60.12;96744.22;10554005;28;20561;-29
2022/10/09 14:52:43;;;;;;;11.10;3.90;;;;;;;18.44;59.84;96751.81;10542660;27;20536;-29
2022/10/09 14:57:44;;;;;;;11.35;3.67;;;;;;;18.44;60.07;96754.38;10547602;28;20753;-30
2022/10/09 15:02:44;;;;;;;6.90;3.17;;;;;;;18.45;60.01;96750.97;10542337;28;20036;-30
2022/10/09 15:07:44;;;;;;;9.03;2.90;;;;;;;18.40;60.09;96742.53;10539456;28;20294;-30
2022/10/09 15:12:45;;;;;;;7.67;2.93;;;;;;;18.45;60.54;96745.91;10549904;28;20081;-31
2022/10/09 15:17:45;;;;;;;5.37;2.40;;;;;;;18.48;61.54;96738.28;10547533;28;20335;-29
2022/10/09 15:22:45;;;;;;;8.00;2.50;;;;;;;18.49;61.24;96740.00;10552341;28;20293;-30
2022/10/09 15:27:46;;;;;;;6.33;2.97;;;;;;;18.46;60.65;96732.38;10541152;28;20542;-29
2022/10/09 15:32:46;;;;;;;5.37;2.50;;;;;;;18.41;61.37;96734.09;10555046;28;20316;-29
2022/10/09 15:37:47;;;;;;;5.73;2.80;;;;;;;18.41;60.73;96729.84;10538069;28;20093;-29
2022/10/09 15:42:47;;;;;;;5.22;3.00;;;;;;;18.43;60.45;96727.31;10536554;28;20558;-31
2022/10/09 15:47:48;;;;;;;5.90;2.90;;;;;;;18.40;60.14;96732.41;10538162;28;20040;-31
2022/10/09 15:52:48;;;;;;;7.70;2.83;;;;;;;18.40;60.83;96730.69;10541243;28;20290;-30
2022/10/09 15:57:48;;;;;;;7.17;2.70;;;;;;;18.41;60.26;96731.56;10535620;28;20039;-29
2022/10/09 16:02:49;;;;;;;5.20;2.70;;;;;;;18.39;61.02;96720.56;10551041;28;20835;-30
2022/10/09 16:07:49;;;;;;;4.53;3.00;;;;;;;18.40;60.59;96727.34;10544337;28;20042;-30
2022/10/09 16:12:49;;;;;;;9.00;4.67;;;;;;;18.42;63.11;96730.72;10529021;28;20047;-30
2022/10/09 16:17:50;;;;;;;7.47;4.27;;;;;;;18.47;63.56;96732.41;10548985;28;20072;-30
2022/10/09 16:22:50;;;;;;;12.25;3.78;;;;;;;18.43;62.95;96717.19;10561026;28;20040;-30
2022/10/09 16:27:50;;;;;;;8.07;3.20;;;;;;;18.32;62.34;96711.28;10550567;28;20088;-30
2022/10/09 16:32:51;;;;;;;4.50;2.90;;;;;;;18.38;61.53;96734.06;10555126;28;20020;-29
2022/10/09 16:37:51;;;;;;;9.33;3.43;;;;;;;18.37;62.21;96732.38;10539438;28;20477;-29
2022/10/09 16:42:52;;;;;;;6.38;3.20;;;;;;;18.37;61.37;96737.47;10554985;28;20409;-30
2022/10/09 16:47:55;;;;;;;10.00;3.47;;;;;;;18.38;62.17;96734.06;10550676;27;20028;-31
2022/10/09 16:52:55;;;;;;;8.02;2.63;;;;;;;18.38;60.42;96740.00;10555049;28;20034;-30
2022/10/09 16:57:55;;;;;;;5.53;2.88;;;;;;;18.38;60.55;96741.69;10547361;27;20036;-30
2022/10/09 17:02:56;;;;;;;5.35;2.42;;;;;;;18.38;60.41;96744.22;10549303;28;20030;-31
2022/10/09 17:07:57;;;;;;;8.32;2.65;;;;;;;18.39;60.65;96746.75;10550626;27;20035;-29
2022/10/09 17:12:58;;;;;;;18.33;3.17;;;;;;;18.50;62.14;96745.06;10541150;27;20050;-31
2022/10/09 17:17:58;;;;;;;17.27;3.50;;;;;;;18.62;63.18;96755.22;10543009;28;20036;-30
2022/10/09 17:22:59;;;;;;;9.30;2.50;;;;;;;18.55;60.64;96756.06;10551002;27;20338;-29
2022/10/09 17:27:59;;;;;;;6.43;2.17;;;;;;;18.56;60.85;96767.03;10544318;28;20028;-32
2022/10/09 17:33:01;;;;;;;11.17;2.87;;;;;;;18.55;60.48;96755.22;10566947;28;20546;-31
2022/10/09 17:38:01;;;;;;;11.23;3.00;;;;;;;18.31;61.73;96768.72;10548027;27;20047;-29
2022/10/09 17:43:01;;;;;;;7.73;3.20;;;;;;;18.45;62.19;96771.25;10543543;27;20063;-30
2022/10/09 17:48:02;;;;;;;12.23;2.57;;;;;;;18.51;60.81;96767.03;10545825;28;20032;-30
2022/10/09 17:53:03;;;;;;;6.50;2.57;;;;;;;18.52;60.91;96762.81;10543753;28;20449;-30
2022/10/09 17:58:03;;;;;;;6.93;3.00;;;;;;;18.54;61.16;96766.19;10546766;28;20032;-31
2022/10/09 18:03:04;;;;;;;6.83;2.60;;;;;;;18.54;60.50;96769.59;10532260;28;20054;-30
2022/10/09 18:08:04;;;;;;;6.03;3.10;;;;;;;18.47;62.35;96752.69;10539276;28;20435;-30
2022/10/09 18:13:06;;;;;;;9.83;3.53;;;;;;;18.54;63.58;96772.13;10542325;28;20492;-31
2022/10/09 18:18:09;;;;;;;7.15;2.92;;;;;;;18.57;63.38;96761.16;10542464;28;20121;-31
2022/10/09 18:23:09;;;;;;;4.72;2.05;;;;;;;18.55;61.31;96752.66;10552651;28;20087;-29
2022/10/09 18:28:11;;;;;;;4.20;2.08;;;;;;;18.52;61.39;96763.69;10540523;28;20139;-31
2022/10/09 18:33:11;;;;;;;4.60;2.00;;;;;;;18.51;61.42;96761.97;10547992;28;20076;-31
2022/10/09 18:38:11;;;;;;;7.72;2.13;;;;;;;18.52;61.80;96757.75;10541514;28;20036;-30
2022/10/09 18:43:12;;;;;;;6.43;2.80;;;;;;;18.51;61.58;96751.81;10538267;28;20042;-30
2022/10/09 18:48:13;;;;;;;6.50;2.30;;;;;;;18.53;60.76;96749.28;10538641;28;20032;-32
2022/10/09 18:53:13;;;;;;;3.88;1.90;;;;;;;18.51;61.26;96751.00;10535394;28;20036;-33
2022/10/09 18:58:14;;;;;;;3.63;2.20;;;;;;;18.51;61.20;96751.00;10551794;28;20028;-31
2022/10/09 19:03:14;;;;;;;4.90;2.17;;;;;;;18.52;62.59;96742.53;10547687;28;20035;-32
2022/10/09 19:08:15;;;;;;;6.33;2.83;;;;;;;18.53;63.24;96744.22;10548307;28;20287;-32
2022/10/09 19:13:15;;;;;;;8.30;2.23;;;;;;;18.52;61.78;96748.47;10552331;28;20312;-32
2022/10/09 19:18:16;;;;;;;4.47;2.10;;;;;;;18.51;62.17;96746.75;10552645;28;20282;-32
2022/10/09 19:23:16;;;;;;;4.28;1.77;;;;;;;18.52;61.10;96743.41;10548215;28;20286;-31
2022/10/09 19:28:17;;;;;;;4.45;2.08;;;;;;;18.46;61.41;96745.06;10539435;28;20462;-30
2022/10/09 19:33:18;;;;;;;4.70;2.03;;;;;;;18.48;61.28;96745.91;10553497;28;20482;-30
2022/10/09 19:38:20;;;;;;;3.40;1.90;;;;;;;18.47;61.70;96745.06;10550556;28;20028;-29
2022/10/09 19:43:22;;;;;;;4.43;2.08;;;;;;;18.48;62.12;96746.75;10545892;28;20316;-31
2022/10/09 19:48:23;;;;;;;2.25;1.90;;;;;;;18.42;61.81;96738.31;10540164;28;20047;-29
2022/10/09 19:53:23;;;;;;;2.95;1.92;;;;;;;18.45;61.94;96746.78;10542108;28;20248;-30
2022/10/09 19:58:23;;;;;;;4.53;1.98;;;;;;;18.41;62.54;96754.38;10548117;28;20417;-30
2022/10/09 20:03:24;;;;;;;3.77;2.07;;;;;;;18.46;62.04;96757.75;10540608;28;20507;-29
2022/10/09 20:08:24;;;;;;;2.85;2.00;;;;;;;18.49;63.27;96757.75;10548265;28;20424;-29
2022/10/09 20:13:25;;;;;;;2.63;2.23;;;;;;;18.51;62.51;96756.06;10551561;28;20090;-29
2022/10/09 20:18:26;;;;;;;4.43;2.03;;;;;;;18.49;61.87;96750.97;10554887;28;20338;-29
2022/10/09 20:23:26;;;;;;;2.28;1.80;;;;;;;18.50;60.88;96754.38;10562855;28;20139;-29
2022/10/09 20:28:29;;;;;;;5.57;2.10;;;;;;;18.53;61.06;96746.75;10566200;28;20172;-29
2022/10/09 20:33:29;;;;;;;3.15;1.90;;;;;;;18.50;61.26;96741.69;10561884;28;20026;-30
2022/10/09 20:38:30;;;;;;;4.33;1.70;;;;;;;18.52;61.26;96734.94;10562088;28;20389;-30
2022/10/09 20:43:30;;;;;;;3.38;1.73;;;;;;;18.50;61.27;96739.16;10559188;28;20169;-31
2022/10/09 20:48:30;;;;;;;2.70;1.83;;;;;;;18.47;61.20;96734.06;10563153;28;20027;-29
2022/10/09 20:53:31;;;;;;;2.87;1.50;;;;;;;18.45;61.80;96730.69;10564469;28;20030;-31
2022/10/09 20:58:32;;;;;;;4.60;1.83;;;;;;;18.39;61.45;96723.09;10564483;28;20078;-30
2022/10/09 21:03:35;;;;;;;2.40;1.65;;;;;;;18.47;62.50;96724.78;10560456;28;20504;-29
2022/10/09 21:08:35;;;;;;;2.97;2.08;;;;;;;18.50;63.52;96726.50;10560628;28;20038;-30
2022/10/09 21:13:37;;;;;;;6.45;2.00;;;;;;;18.47;62.69;96734.94;10565314;28;20038;-30
2022/10/09 21:18:38;;;;;;;4.68;1.60;;;;;;;18.47;61.71;96732.41;10555444;28;20035;-30
2022/10/09 21:23:39;;;;;;;2.58;1.85;;;;;;;18.45;61.78;96735.78;10567319;28;20032;-30
2022/10/09 21:28:40;;;;;;;3.42;1.70;;;;;;;18.44;61.55;96739.16;10559817;28;20043;-29
2022/10/09 21:33:40;;;;;;;4.35;1.75;;;;;;;18.45;62.01;96740.84;10567778;28;20032;-29
2022/10/09 21:38:41;;;;;;;3.83;2.20;;;;;;;18.41;61.24;96734.09;10562990;28;20047;-29
2022/10/09 21:43:41;;;;;;;3.83;1.83;;;;;;;18.42;61.67;96740.84;10568362;28;20550;-30
2022/10/09 21:48:42;;;;;;;3.50;1.60;;;;;;;18.40;61.81;96738.31;10553631;28;20289;-29
2022/10/09 21:53:42;;;;;;;3.07;1.30;;;;;;;18.40;61.88;96743.38;10561719;28;20031;-29
2022/10/09 21:58:43;;;;;;;4.77;2.00;;;;;;;18.40;62.27;96747.63;10562969;28;20285;-31
2022/10/09 22:03:43;;;;;;;2.70;1.92;;;;;;;18.41;62.59;96749.31;10556789;28;20043;-30
2022/10/09 22:08:44;;;;;;;4.28;1.95;;;;;;;18.46;63.35;96753.53;10558377;28;20027;-29
2022/10/09 22:13:44;;;;;;;2.58;1.70;;;;;;;18.36;62.97;96743.38;10569816;28;20023;-29
2022/10/09 22:18:44;;;;;;;4.30;1.80;;;;;;;18.42;62.46;96743.38;10563459;28;20546;-29
2022/10/09 22:23:45;;;;;;;5.60;1.53;;;;;;;18.40;62.42;96742.53;10563166;28;20028;-30
2022/10/09 22:28:47;;;;;;;2.13;1.70;;;;;;;18.39;62.68;96740.81;10554330;28;20285;-29
2022/10/09 22:33:50;;;;;;;4.88;1.80;;;;;;;18.37;62.30;96735.78;10565065;28;20663;-29
2022/10/09 22:38:56;;;;;;;2.97;1.80;;;;;;;18.36;62.38;96735.78;10560127;28;20115;-30
2022/10/09 22:43:58;;;;;;;2.37;1.50;;;;;;;18.38;62.16;96734.06;10559698;28;20038;-30
2022/10/09 22:48:59;;;;;;;2.13;1.55;;;;;;;18.37;62.31;96735.78;10555616;28;20031;-29
2022/10/09 22:53:59;;;;;;;2.95;1.40;;;;;;;18.37;62.33;96727.31;10559293;28;20259;-30
2022/10/09 22:59:00;;;;;;;3.30;1.58;;;;;;;18.36;62.75;96728.16;10553904;28;20466;-30
2022/10/09 23:04:04;;;;;;;1.80;1.52;;;;;;;18.39;63.60;96725.63;10553210;28;20379;-31
2022/10/09 23:09:07;;;;;;;2.65;1.67;;;;;;;18.30;63.73;96701.13;10558232;28;20061;-29
2022/10/09 23:14:07;;;;;;;7.03;1.60;;;;;;;18.42;62.20;96725.66;10561054;28;20027;-29
2022/10/09 23:19:08;;;;;;;1.70;1.27;;;;;;;18.37;61.79;96712.09;10552751;28;20041;-30
2022/10/09 23:24:14;;;;;;;3.60;1.40;;;;;;;18.37;62.35;96718.03;10561429;28;20039;-30
2022/10/09 23:29:16;;;;;;;1.67;1.33;;;;;;;18.35;62.64;96714.63;10550412;28;20198;-29